createdAt,value
2022-08-17T00:01:31.461Z,20.89
2022-08-17T00:04:19.104Z,20.86
2022-08-17T00:06:45.890Z,20.85
2022-08-17T00:09:15.397Z,20.91
2022-08-17T00:12:03.889Z,20.94
2022-08-17T00:14:36.047Z,20.87
2022-08-17T00:17:04.693Z,20.91
2022-08-17T00:19:32.662Z,20.87
2022-08-17T00:22:34.376Z,20.81
2022-08-17T00:24:47.344Z,20.74
2022-08-17T00:27:13.856Z,20.68
2022-08-17T00:29:40.649Z,20.69
2022-08-17T00:33:22.894Z,20.71
2022-08-17T00:34:53.766Z,20.71
2022-08-17T00:37:20.255Z,20.74
2022-08-17T00:39:46.826Z,20.74
2022-08-17T00:42:19.185Z,20.76
2022-08-17T00:44:46.208Z,20.79
2022-08-17T00:47:13.423Z,20.80
2022-08-17T00:49:40.062Z,20.79
2022-08-17T00:52:15.582Z,20.76
2022-08-17T00:54:46.994Z,20.68
2022-08-17T00:57:22.018Z,20.67
2022-08-17T00:59:56.063Z,20.54
2022-08-17T01:02:40.454Z,20.44
2022-08-17T01:05:18.857Z,20.46
2022-08-17T01:07:47.953Z,20.50
2022-08-17T01:10:57.566Z,20.45
2022-08-17T01:13:03.283Z,20.44
2022-08-17T01:15:32.013Z,20.38
2022-08-17T01:17:58.686Z,20.24
2022-08-17T01:20:25.384Z,20.19
2022-08-17T01:22:53.140Z,20.16
2022-08-17T01:25:21.365Z,20.19
2022-08-17T01:27:49.168Z,20.14
2022-08-17T01:30:58.300Z,20.22
2022-08-17T01:33:02.633Z,20.23
2022-08-17T01:35:29.297Z,20.28
2022-08-17T01:37:55.951Z,20.37
2022-08-17T01:40:37.810Z,20.47
2022-08-17T01:43:11.943Z,20.56
2022-08-17T01:45:46.005Z,20.61
2022-08-17T01:48:12.863Z,20.64
2022-08-17T01:50:41.910Z,20.59
2022-08-17T01:53:18.249Z,20.55
2022-08-17T01:55:53.390Z,20.43
2022-08-17T01:58:20.612Z,20.41
2022-08-17T02:01:00.962Z,20.42
2022-08-17T02:03:29.387Z,20.45
2022-08-17T02:05:56.298Z,20.49
2022-08-17T02:08:37.205Z,20.50
2022-08-17T02:11:11.663Z,20.54
2022-08-17T02:13:38.586Z,20.53
2022-08-17T02:16:05.986Z,20.53
2022-08-17T02:18:32.649Z,20.57
2022-08-17T02:20:59.223Z,20.64
2022-08-17T02:23:30.458Z,20.68
2022-08-17T02:25:59.482Z,20.73
2022-08-17T02:28:28.356Z,20.74
2022-08-17T02:31:01.106Z,20.74
2022-08-17T02:33:41.667Z,20.72
2022-08-17T02:36:12.790Z,20.72
2022-08-17T02:38:40.711Z,20.67
2022-08-17T02:41:08.313Z,20.62
2022-08-17T02:43:35.758Z,20.63
2022-08-17T02:46:02.360Z,20.64
2022-08-17T02:48:31.578Z,20.67
2022-08-17T02:50:59.480Z,20.70
2022-08-17T02:53:26.116Z,20.67
2022-08-17T02:55:53.087Z,20.66
2022-08-17T02:58:35.114Z,20.64
2022-08-17T03:01:04.301Z,20.64
2022-08-17T03:03:30.858Z,20.60
2022-08-17T03:05:57.536Z,20.61
2022-08-17T03:08:25.479Z,20.60
2022-08-17T03:10:52.522Z,20.61
2022-08-17T03:13:19.482Z,20.63
2022-08-17T03:15:47.399Z,20.63
2022-08-17T03:18:25.027Z,20.59
2022-08-17T03:20:55.871Z,20.54
2022-08-17T03:23:25.303Z,20.54
2022-08-17T03:25:54.002Z,20.50
2022-08-17T03:28:22.271Z,20.46
2022-08-17T03:30:49.200Z,20.41
2022-08-17T03:33:16.240Z,20.38
2022-08-17T03:35:43.247Z,20.38
2022-08-17T03:38:11.320Z,20.36
2022-08-17T03:40:57.765Z,20.38
2022-08-17T03:43:28.470Z,20.43
2022-08-17T03:46:27.775Z,20.47
2022-08-17T03:49:17.569Z,20.50
2022-08-17T03:52:02.916Z,20.54
2022-08-17T03:54:47.968Z,20.59
2022-08-17T03:57:14.746Z,20.60
2022-08-17T03:59:41.722Z,20.59
2022-08-17T04:02:11.793Z,20.62
2022-08-17T04:04:38.594Z,20.62
2022-08-17T04:07:05.679Z,20.58
2022-08-17T04:09:32.329Z,20.56
2022-08-17T04:12:02.268Z,20.55
2022-08-17T04:14:39.273Z,20.50
2022-08-17T04:17:21.679Z,20.51
2022-08-17T04:19:48.089Z,20.48
2022-08-17T04:22:31.938Z,20.46
2022-08-17T04:25:16.365Z,20.43
2022-08-17T04:27:43.076Z,20.40
2022-08-17T04:30:10.336Z,20.41
2022-08-17T04:33:06.270Z,20.41
2022-08-17T04:35:40.157Z,20.41
2022-08-17T04:38:09.393Z,20.40
2022-08-17T04:40:55.162Z,20.39
2022-08-17T04:43:24.922Z,20.38
2022-08-17T04:45:55.212Z,20.36
2022-08-17T04:48:29.754Z,20.34
2022-08-17T04:51:05.866Z,20.33
2022-08-17T04:53:32.600Z,20.36
2022-08-17T04:55:59.304Z,20.36
2022-08-17T04:58:25.804Z,20.37
2022-08-17T05:00:52.531Z,20.37
2022-08-17T05:05:49.887Z,20.41
2022-08-17T05:08:19.063Z,20.40
2022-08-17T05:10:46.163Z,20.37
2022-08-17T05:13:19.698Z,20.40
2022-08-17T05:15:48.224Z,20.43
2022-08-17T05:18:16.813Z,20.45
2022-08-17T05:20:43.471Z,20.43
2022-08-17T05:23:13.823Z,20.40
2022-08-17T05:25:46.244Z,20.37
2022-08-17T05:28:19.064Z,20.35
2022-08-17T05:30:50.845Z,20.35
2022-08-17T05:33:26.709Z,20.33
2022-08-17T05:35:55.747Z,20.29
2022-08-17T05:38:25.126Z,20.32
2022-08-17T05:40:53.260Z,20.31
2022-08-17T05:43:27.854Z,20.31
2022-08-17T05:46:06.323Z,20.24
2022-08-17T05:48:45.913Z,20.24
2022-08-17T05:51:24.828Z,20.23
2022-08-17T05:54:07.406Z,20.16
2022-08-17T05:56:52.622Z,20.07
2022-08-17T05:59:43.927Z,20.07
2022-08-17T06:02:29.110Z,20.11
2022-08-17T06:05:23.479Z,20.18
2022-08-17T06:08:00.244Z,20.26
2022-08-17T06:11:04.675Z,20.34
2022-08-17T06:14:10.664Z,20.38
2022-08-17T06:16:41.291Z,20.42
2022-08-17T06:19:35.231Z,20.48
2022-08-17T06:22:03.379Z,20.56
2022-08-17T06:24:56.851Z,20.61
2022-08-17T06:27:36.164Z,20.59
2022-08-17T06:30:14.123Z,20.64
2022-08-17T06:32:45.829Z,20.68
2022-08-17T06:35:15.781Z,20.71
2022-08-17T06:37:54.717Z,20.80
2022-08-17T06:40:27.455Z,20.96
2022-08-17T06:43:10.923Z,21.08
2022-08-17T06:45:49.411Z,21.08
2022-08-17T06:48:33.325Z,21.11
2022-08-17T06:51:29.824Z,21.10
2022-08-17T06:54:05.434Z,21.13
2022-08-17T06:56:53.927Z,21.15
2022-08-17T06:59:54.444Z,21.09
2022-08-17T07:02:51.253Z,21.16
2022-08-17T07:05:22.643Z,21.18
2022-08-17T07:08:09.283Z,21.26
2022-08-17T07:10:42.662Z,21.28
2022-08-17T07:13:51.597Z,21.26
2022-08-17T07:16:41.568Z,21.24
2022-08-17T07:19:10.922Z,21.24
2022-08-17T07:21:52.446Z,21.22
2022-08-17T07:24:43.261Z,21.23
2022-08-17T07:27:12.844Z,21.26
2022-08-17T07:29:50.656Z,21.19
2022-08-17T07:32:23.365Z,21.16
2022-08-17T07:35:31.382Z,21.13
2022-08-17T07:38:24.749Z,21.03
2022-08-17T07:41:01.968Z,20.93
2022-08-17T07:43:37.127Z,20.75
2022-08-17T07:46:34.189Z,20.61
2022-08-17T07:49:03.465Z,20.56
2022-08-17T07:51:33.381Z,20.46
2022-08-17T07:54:13.942Z,20.46
2022-08-17T07:56:51.218Z,20.48
2022-08-17T07:59:18.191Z,20.56
2022-08-17T08:01:57.612Z,20.67
2022-08-17T08:04:59.282Z,20.72
2022-08-17T08:07:26.772Z,20.73
2022-08-17T08:10:08.666Z,20.73
2022-08-17T08:12:46.963Z,20.77
2022-08-17T08:15:21.429Z,20.81
2022-08-17T08:18:03.781Z,20.77
2022-08-17T08:20:51.236Z,20.76
2022-08-17T08:23:31.481Z,20.86
2022-08-17T08:26:27.014Z,20.96
2022-08-17T08:29:08.623Z,21.04
2022-08-17T08:32:20.497Z,21.15
2022-08-17T08:35:06.706Z,21.39
2022-08-17T08:38:11.114Z,21.54
2022-08-17T08:41:07.711Z,21.59
2022-08-17T08:43:52.976Z,21.66
2022-08-17T08:46:31.654Z,21.58
2022-08-17T08:48:59.602Z,21.60
2022-08-17T08:51:40.393Z,21.65
2022-08-17T08:54:27.021Z,21.60
2022-08-17T08:57:23.146Z,21.48
2022-08-17T09:00:15.466Z,21.52
2022-08-17T09:02:50.990Z,21.44
2022-08-17T09:05:23.466Z,21.46
2022-08-17T09:08:02.088Z,21.53
2022-08-17T09:10:41.263Z,21.46
2022-08-17T09:13:16.294Z,21.30
2022-08-17T09:15:47.310Z,21.25
2022-08-17T09:19:01.893Z,21.22
2022-08-17T09:21:21.545Z,21.11
2022-08-17T09:24:00.160Z,21.19
2022-08-17T09:26:40.075Z,21.30
2022-08-17T09:29:09.959Z,21.46
2022-08-17T09:31:58.329Z,21.62
2022-08-17T09:34:54.851Z,21.50
2022-08-17T09:37:35.580Z,21.40
2022-08-17T09:40:24.261Z,21.26
2022-08-17T09:42:56.424Z,21.14
2022-08-17T09:45:40.561Z,21.01
2022-08-17T09:48:32.715Z,20.86
2022-08-17T09:51:24.492Z,20.64
2022-08-17T09:53:51.390Z,20.36
2022-08-17T09:56:27.249Z,20.21
2022-08-17T09:59:08.997Z,20.21
2022-08-17T10:01:53.499Z,20.36
2022-08-17T10:04:32.671Z,20.46
2022-08-17T10:07:22.664Z,20.73
2022-08-17T10:09:49.211Z,21.07
2022-08-17T10:12:34.182Z,21.39
2022-08-17T10:15:18.940Z,21.90
2022-08-17T10:18:04.037Z,22.01
2022-08-17T10:21:14.898Z,22.09
2022-08-17T10:24:01.246Z,21.98
2022-08-17T10:26:46.266Z,21.98
2022-08-17T10:29:24.842Z,22.10
2022-08-17T10:32:01.591Z,22.10
2022-08-17T10:35:14.616Z,22.12
2022-08-17T10:37:44.181Z,22.14
2022-08-17T10:40:26.475Z,22.06
2022-08-17T10:43:34.712Z,22.02
2022-08-17T10:46:30.407Z,22.13
2022-08-17T10:49:18.406Z,22.28
2022-08-17T10:51:57.068Z,22.41
2022-08-17T10:55:01.194Z,22.52
2022-08-17T10:57:31.769Z,22.64
2022-08-17T11:00:03.455Z,22.69
2022-08-17T11:02:45.777Z,22.72
2022-08-17T11:05:43.857Z,22.62
2022-08-17T11:08:18.694Z,22.67
2022-08-17T11:11:10.826Z,22.70
2022-08-17T11:13:49.219Z,22.64
2022-08-17T11:16:24.325Z,22.69
2022-08-17T11:19:21.301Z,22.65
2022-08-17T11:22:06.035Z,22.58
2022-08-17T11:24:51.316Z,22.27
2022-08-17T11:27:34.088Z,22.12
2022-08-17T11:30:41.366Z,21.97
2022-08-17T11:33:44.741Z,21.84
2022-08-17T11:36:37.390Z,21.78
2022-08-17T11:39:22.058Z,21.79
2022-08-17T11:42:00.863Z,21.70
2022-08-17T11:44:42.019Z,21.61
2022-08-17T11:47:34.867Z,21.57
2022-08-17T11:50:38.712Z,21.61
2022-08-17T11:53:06.035Z,21.60
2022-08-17T11:55:38.496Z,21.39
2022-08-17T11:58:27.015Z,21.34
2022-08-17T12:00:57.452Z,21.37
2022-08-17T12:03:32.133Z,21.39
2022-08-17T12:06:04.758Z,21.38
2022-08-17T12:08:33.878Z,21.35
2022-08-17T12:11:06.408Z,21.37
2022-08-17T12:14:03.288Z,21.32
2022-08-17T12:16:29.948Z,21.15
2022-08-17T12:18:59.893Z,21.12
2022-08-17T12:21:40.585Z,21.19
2022-08-17T12:24:20.849Z,21.38
2022-08-17T12:26:58.210Z,21.46
2022-08-17T12:29:38.594Z,21.60
2022-08-17T12:32:07.591Z,21.60
2022-08-17T12:34:36.565Z,21.61
2022-08-17T12:37:07.949Z,21.58
2022-08-17T12:39:34.765Z,21.50
2022-08-17T12:42:02.774Z,21.43
2022-08-17T12:44:33.808Z,21.45
2022-08-17T12:47:22.183Z,21.40
2022-08-17T12:49:52.879Z,21.45
2022-08-17T12:52:19.393Z,21.54
2022-08-17T12:54:59.608Z,21.53
2022-08-17T12:57:33.715Z,21.55
2022-08-17T13:00:15.737Z,21.60
2022-08-17T13:02:44.654Z,21.66
2022-08-17T13:05:28.994Z,21.74
2022-08-17T13:07:58.860Z,21.78
2022-08-17T13:10:33.391Z,21.81
2022-08-17T13:13:06.004Z,21.80
2022-08-17T13:15:44.786Z,21.76
2022-08-17T13:18:39.012Z,21.61
2022-08-17T13:21:27.566Z,21.48
2022-08-17T13:24:13.764Z,21.51
2022-08-17T13:26:44.209Z,21.45
2022-08-17T13:29:33.553Z,21.39
2022-08-17T13:32:13.069Z,21.36
2022-08-17T13:35:07.816Z,21.33
2022-08-17T13:37:35.685Z,21.35
2022-08-17T13:40:02.406Z,21.34
2022-08-17T13:42:52.204Z,21.38
2022-08-17T13:45:36.768Z,21.49
2022-08-17T13:48:26.766Z,21.54
2022-08-17T13:50:56.055Z,21.57
2022-08-17T13:53:31.162Z,21.57
2022-08-17T13:56:37.587Z,21.56
2022-08-17T13:59:53.421Z,21.61
2022-08-17T14:02:13.477Z,21.66
2022-08-17T14:04:44.033Z,21.62
2022-08-17T14:07:11.564Z,21.57
2022-08-17T14:09:40.930Z,21.52
2022-08-17T14:12:13.576Z,21.55
2022-08-17T14:14:42.626Z,21.58
2022-08-17T14:17:10.043Z,21.65
2022-08-17T14:19:37.891Z,21.76
2022-08-17T14:22:05.138Z,21.89
2022-08-17T14:24:35.112Z,21.99
2022-08-17T14:27:03.587Z,22.03
2022-08-17T14:29:33.173Z,22.09
2022-08-17T14:32:07.957Z,22.15
2022-08-17T14:34:34.642Z,22.11
2022-08-17T14:37:01.142Z,22.11
2022-08-17T14:39:28.737Z,22.12
2022-08-17T14:41:56.107Z,22.17
2022-08-17T14:44:22.559Z,22.17
2022-08-17T14:46:50.603Z,22.25
2022-08-17T14:49:20.650Z,22.29
2022-08-17T14:51:47.424Z,22.28
2022-08-17T14:54:33.710Z,22.27
2022-08-17T14:57:22.362Z,22.33
2022-08-17T14:59:51.710Z,22.33
2022-08-17T15:02:22.401Z,22.31
2022-08-17T15:05:04.258Z,22.28
2022-08-17T15:07:31.481Z,22.30
2022-08-17T15:10:01.495Z,22.33
2022-08-17T15:12:33.090Z,22.33
2022-08-17T15:15:04.804Z,22.31
2022-08-17T15:17:44.191Z,22.28
2022-08-17T15:20:28.084Z,22.27
2022-08-17T15:22:57.249Z,22.29
2022-08-17T15:25:26.137Z,22.27
2022-08-17T15:27:54.024Z,22.17
2022-08-17T15:30:20.582Z,22.16
2022-08-17T15:32:54.701Z,22.16
2022-08-17T15:35:29.167Z,22.15
2022-08-17T15:38:06.270Z,22.19
2022-08-17T15:40:38.741Z,22.23
2022-08-17T15:43:08.124Z,22.18
2022-08-17T15:45:35.289Z,22.24
2022-08-17T15:48:02.033Z,22.23
2022-08-17T15:50:28.617Z,22.33
2022-08-17T15:52:59.796Z,22.44
2022-08-17T15:55:29.304Z,22.57
2022-08-17T15:57:55.802Z,22.67
2022-08-17T16:00:24.061Z,22.73
2022-08-17T16:03:13.819Z,22.76
2022-08-17T16:05:37.711Z,22.85
2022-08-17T16:08:07.550Z,22.79
2022-08-17T16:10:35.024Z,22.74
2022-08-17T16:13:03.451Z,22.63
2022-08-17T16:15:31.601Z,22.65
2022-08-17T16:17:58.381Z,22.61
2022-08-17T16:20:24.873Z,22.54
2022-08-17T16:22:51.655Z,22.38
2022-08-17T16:25:22.921Z,22.26
2022-08-17T16:28:09.427Z,22.18
2022-08-17T16:30:37.470Z,22.10
2022-08-17T16:33:04.087Z,21.98
2022-08-17T16:35:30.620Z,21.91
2022-08-17T16:37:58.387Z,21.85
2022-08-17T16:40:28.991Z,21.86
2022-08-17T16:42:57.695Z,21.87
2022-08-17T16:45:40.514Z,21.85
2022-08-17T16:48:08.072Z,21.84
2022-08-17T16:50:35.129Z,21.93
2022-08-17T16:53:10.940Z,21.97
2022-08-17T16:55:38.200Z,22.04
2022-08-17T16:58:06.338Z,22.12
2022-08-17T17:00:33.774Z,22.11
2022-08-17T17:03:19.462Z,22.12
2022-08-17T17:05:59.194Z,22.19
2022-08-17T17:08:31.355Z,22.19
2022-08-17T17:11:03.875Z,22.14
2022-08-17T17:13:50.262Z,22.09
2022-08-17T17:16:28.890Z,22.09
2022-08-17T17:19:09.109Z,22.11
2022-08-17T17:21:55.986Z,22.08
2022-08-17T17:24:42.035Z,21.95
2022-08-17T17:27:18.447Z,21.93
2022-08-17T17:30:03.772Z,21.83
2022-08-17T17:32:49.497Z,21.76
2022-08-17T17:35:24.036Z,21.69
2022-08-17T17:37:52.920Z,21.65
2022-08-17T17:40:23.916Z,21.64
2022-08-17T17:42:53.658Z,21.59
2022-08-17T17:45:23.911Z,21.63
2022-08-17T17:47:50.740Z,21.62
2022-08-17T17:50:19.969Z,21.60
2022-08-17T17:53:11.277Z,21.61
2022-08-17T17:56:43.248Z,21.65
2022-08-17T17:59:24.195Z,21.59
2022-08-17T18:02:51.624Z,21.54
2022-08-17T18:05:39.056Z,21.46
2022-08-17T18:08:11.327Z,21.43
2022-08-17T18:10:50.788Z,21.45
2022-08-17T18:13:54.928Z,21.44
2022-08-17T18:16:22.592Z,21.47
2022-08-17T18:18:52.417Z,21.50
2022-08-17T18:21:24.258Z,21.52
2022-08-17T18:23:53.823Z,21.53
2022-08-17T18:26:43.801Z,21.46
2022-08-17T18:29:26.133Z,21.36
2022-08-17T18:32:13.368Z,21.33
2022-08-17T18:34:48.568Z,21.33
2022-08-17T18:37:31.797Z,21.31
2022-08-17T18:39:58.593Z,21.32
2022-08-17T18:42:28.219Z,21.32
2022-08-17T18:44:55.746Z,21.30
2022-08-17T18:47:28.570Z,21.26
2022-08-17T18:50:25.883Z,21.15
2022-08-17T18:52:52.839Z,21.06
2022-08-17T18:55:22.957Z,20.97
2022-08-17T18:57:56.847Z,20.87
2022-08-17T19:00:26.452Z,20.69
2022-08-17T19:02:56.796Z,20.61
2022-08-17T19:05:37.150Z,20.57
2022-08-17T19:08:18.725Z,20.56
2022-08-17T19:10:51.752Z,20.61
2022-08-17T19:13:28.964Z,20.67
2022-08-17T19:16:14.206Z,20.69
2022-08-17T19:19:14.571Z,20.70
2022-08-17T19:21:53.210Z,20.70
2022-08-17T19:24:23.007Z,20.66
2022-08-17T19:27:07.999Z,20.60
2022-08-17T19:29:51.414Z,20.67
2022-08-17T19:32:24.416Z,20.70
2022-08-17T19:34:51.177Z,20.71
2022-08-17T19:37:23.451Z,20.65
2022-08-17T19:40:52.461Z,20.59
2022-08-17T19:44:01.107Z,20.59
2022-08-17T19:46:39.176Z,20.59
2022-08-17T19:49:32.936Z,20.55
2022-08-17T19:52:30.526Z,20.59
2022-08-17T19:55:04.787Z,20.61
2022-08-17T19:57:56.373Z,20.53
2022-08-17T20:00:23.412Z,20.53
2022-08-17T20:03:05.941Z,20.52
2022-08-17T20:06:08.706Z,20.54
2022-08-17T20:08:29.042Z,20.50
2022-08-17T20:11:31.641Z,20.48
2022-08-17T20:14:32.831Z,20.50
2022-08-17T20:17:02.619Z,20.49
2022-08-17T20:19:37.786Z,20.47
2022-08-17T20:22:10.933Z,20.38
2022-08-17T20:24:57.830Z,20.39
2022-08-17T20:27:33.216Z,20.37
2022-08-17T20:30:12.051Z,20.34
2022-08-17T20:32:48.583Z,20.32
2022-08-17T20:35:15.027Z,20.29
2022-08-17T20:37:44.769Z,20.30
2022-08-17T20:40:19.204Z,20.30
2022-08-17T20:42:45.907Z,20.23
2022-08-17T20:45:21.460Z,20.14
2022-08-17T20:48:18.601Z,20.09
2022-08-17T20:50:43.781Z,20.07
2022-08-17T20:53:15.219Z,20.02
2022-08-17T20:55:52.573Z,20.00
2022-08-17T20:58:30.955Z,20.01
2022-08-17T21:00:57.883Z,19.96
2022-08-17T21:03:24.464Z,19.95
2022-08-17T21:05:53.493Z,19.94
2022-08-17T21:08:34.271Z,19.86
2022-08-17T21:12:02.797Z,19.77
2022-08-17T21:14:36.662Z,19.71
2022-08-17T21:17:33.575Z,19.71
2022-08-17T21:20:11.772Z,19.70
2022-08-17T21:23:06.868Z,19.72
2022-08-17T21:25:49.077Z,19.75
2022-08-17T21:28:33.973Z,19.71
2022-08-17T21:31:08.513Z,19.74
2022-08-17T21:33:39.605Z,19.72
2022-08-17T21:36:12.282Z,19.74
2022-08-17T21:38:47.980Z,19.72
2022-08-17T21:41:34.155Z,19.72
2022-08-17T21:44:18.079Z,19.73
2022-08-17T21:46:47.318Z,19.68
2022-08-17T21:49:17.739Z,19.62
2022-08-17T21:51:54.275Z,19.60
2022-08-17T21:54:26.858Z,19.61
2022-08-17T21:56:53.788Z,19.61
2022-08-17T21:59:30.586Z,19.61
2022-08-17T22:02:03.135Z,19.55
2022-08-17T22:04:31.445Z,19.53
2022-08-17T22:07:01.235Z,19.46
2022-08-17T22:09:34.371Z,19.39
2022-08-17T22:12:00.903Z,19.34
2022-08-17T22:14:52.960Z,19.37
2022-08-17T22:17:25.151Z,19.39
2022-08-17T22:20:08.895Z,19.40
2022-08-17T22:23:16.590Z,19.43
2022-08-17T22:26:04.517Z,19.42
2022-08-17T22:28:43.339Z,19.40
2022-08-17T22:31:14.664Z,19.42
2022-08-17T22:34:13.702Z,19.31
2022-08-17T22:36:41.882Z,19.14
2022-08-17T22:39:08.365Z,19.12
2022-08-17T22:41:48.153Z,19.14
2022-08-17T22:44:35.587Z,19.13
2022-08-17T22:47:18.722Z,19.12
2022-08-17T22:49:58.787Z,19.07
2022-08-17T22:53:01.473Z,19.01
2022-08-17T22:56:10.062Z,18.94
2022-08-17T22:59:02.420Z,18.95
2022-08-17T23:01:31.455Z,18.97
2022-08-17T23:04:02.378Z,19.02
2022-08-17T23:06:30.025Z,18.98
2022-08-17T23:08:58.066Z,18.90
2022-08-17T23:11:42.960Z,18.90
2022-08-17T23:14:19.161Z,18.88
2022-08-17T23:16:46.350Z,18.86
2022-08-17T23:19:15.459Z,18.84
2022-08-17T23:21:45.011Z,18.83
2022-08-17T23:24:17.284Z,18.82
2022-08-17T23:26:43.806Z,18.83
2022-08-17T23:29:10.292Z,18.82
2022-08-17T23:31:38.682Z,18.82
2022-08-17T23:34:10.045Z,18.82
2022-08-17T23:36:36.561Z,18.77
2022-08-17T23:39:05.340Z,18.73
2022-08-17T23:41:35.210Z,18.69
2022-08-17T23:44:04.467Z,18.65
2022-08-17T23:46:31.067Z,18.63
2022-08-17T23:48:57.504Z,18.61
2022-08-17T23:51:28.401Z,18.58
2022-08-17T23:53:58.260Z,18.57
2022-08-17T23:56:25.763Z,18.54
2022-08-17T23:58:54.829Z,18.52
